KOAK

Metropolitan Oakland International Airport

Oakland, California, USA
METAR KOAK 182253Z 30011KT 10SM CLR 22/14 A3000 RMK AO2 SLP157 T02220139
Observed Flight Rules
Aug-18 @ 22:53 UTC (53 minutes ago) Visual Flight Rules
Wind Visibility Clouds
300° at 11 knots 10 miles
  • Clear skies
Temperatures Readings
Current 22°C / 72°F
Dewpoint 14°C / 57°F
Humidity 61%
Altimeter 30" Hg
Pressure 1015.7 hPa
Elevation 26
METAR KOAK 182253Z 30011KT 10SM CLR 22/14 A3000 RMK AO2 SLP157 T02220139
Observed Flight Rules
Aug-18 @ 22:53 UTC
(53 minutes ago)
VFR
Wind Visibility
300° at 11 knots 10 miles
Clouds
  • Clear skies
Temperature Dewpoint
22°C / 72°F 14°C / 57°F
Humidity Altimeter Pressure
61% 30" Hg 1015.7 hPa